sensor_id;sensor_type;location;lat;lon;timestamp;P1;durP1;ratioP1;P2;durP2;ratioP2
3155;SDS011;1588;50.892;7.082;2023-02-28T00:01:24;2.40;;;1.90;;
3155;SDS011;1588;50.892;7.082;2023-02-28T00:06:27;5.13;;;2.27;;
3155;SDS011;1588;50.892;7.082;2023-02-28T00:11:31;4.67;;;2.00;;
3155;SDS011;1588;50.892;7.082;2023-02-28T00:16:33;6.20;;;1.90;;
3155;SDS011;1588;50.892;7.082;2023-02-28T00:21:37;5.80;;;1.80;;
3155;SDS011;1588;50.892;7.082;2023-02-28T00:26:43;4.43;;;2.23;;
3155;SDS011;1588;50.892;7.082;2023-02-28T00:31:46;5.23;;;1.53;;
3155;SDS011;1588;50.892;7.082;2023-02-28T00:36:48;3.33;;;2.00;;
3155;SDS011;1588;50.892;7.082;2023-02-28T00:41:52;5.17;;;2.53;;
3155;SDS011;1588;50.892;7.082;2023-02-28T00:46:54;1.80;;;1.47;;
3155;SDS011;1588;50.892;7.082;2023-02-28T00:51:57;4.90;;;1.60;;
3155;SDS011;1588;50.892;7.082;2023-02-28T00:57:00;4.30;;;2.30;;
3155;SDS011;1588;50.892;7.082;2023-02-28T01:02:02;7.20;;;1.73;;
3155;SDS011;1588;50.892;7.082;2023-02-28T01:07:05;4.47;;;2.00;;
3155;SDS011;1588;50.892;7.082;2023-02-28T01:12:09;2.23;;;1.63;;
3155;SDS011;1588;50.892;7.082;2023-02-28T01:17:11;7.30;;;2.00;;
3155;SDS011;1588;50.892;7.082;2023-02-28T01:22:13;7.20;;;2.30;;
3155;SDS011;1588;50.892;7.082;2023-02-28T01:27:17;1.83;;;1.50;;
3155;SDS011;1588;50.892;7.082;2023-02-28T01:32:19;5.20;;;2.30;;
3155;SDS011;1588;50.892;7.082;2023-02-28T01:37:21;6.23;;;2.20;;
3155;SDS011;1588;50.892;7.082;2023-02-28T01:42:25;3.47;;;2.17;;
3155;SDS011;1588;50.892;7.082;2023-02-28T01:47:29;6.20;;;2.60;;
3155;SDS011;1588;50.892;7.082;2023-02-28T01:52:34;4.03;;;2.13;;
3155;SDS011;1588;50.892;7.082;2023-02-28T01:57:39;3.40;;;2.00;;
3155;SDS011;1588;50.892;7.082;2023-02-28T02:02:45;4.00;;;1.90;;
3155;SDS011;1588;50.892;7.082;2023-02-28T02:07:51;6.03;;;2.13;;
3155;SDS011;1588;50.892;7.082;2023-02-28T02:13:07;4.53;;;1.90;;
3155;SDS011;1588;50.892;7.082;2023-02-28T02:18:22;3.80;;;1.97;;
3155;SDS011;1588;50.892;7.082;2023-02-28T02:23:45;3.30;;;1.80;;
3155;SDS011;1588;50.892;7.082;2023-02-28T02:29:17;4.37;;;2.20;;
3155;SDS011;1588;50.892;7.082;2023-02-28T02:34:56;5.83;;;2.30;;
3155;SDS011;1588;50.892;7.082;2023-02-28T02:40:10;2.73;;;1.93;;
3155;SDS011;1588;50.892;7.082;2023-02-28T02:45:17;1.93;;;1.70;;
3155;SDS011;1588;50.892;7.082;2023-02-28T02:50:26;3.17;;;1.50;;
3155;SDS011;1588;50.892;7.082;2023-02-28T02:55:33;3.13;;;1.83;;
3155;SDS011;1588;50.892;7.082;2023-02-28T03:00:41;2.33;;;1.93;;
3155;SDS011;1588;50.892;7.082;2023-02-28T03:05:52;2.90;;;2.10;;
3155;SDS011;1588;50.892;7.082;2023-02-28T03:10:55;3.20;;;1.90;;
3155;SDS011;1588;50.892;7.082;2023-02-28T03:16:04;3.50;;;2.00;;
3155;SDS011;1588;50.892;7.082;2023-02-28T03:21:25;2.30;;;1.83;;
3155;SDS011;1588;50.892;7.082;2023-02-28T03:26:34;7.10;;;1.93;;
3155;SDS011;1588;50.892;7.082;2023-02-28T03:31:41;2.83;;;1.90;;
3155;SDS011;1588;50.892;7.082;2023-02-28T03:36:49;3.13;;;2.23;;
3155;SDS011;1588;50.892;7.082;2023-02-28T03:41:56;2.90;;;2.13;;
3155;SDS011;1588;50.892;7.082;2023-02-28T03:47:03;3.40;;;1.93;;
3155;SDS011;1588;50.892;7.082;2023-02-28T03:52:10;2.90;;;1.80;;
3155;SDS011;1588;50.892;7.082;2023-02-28T03:57:13;3.67;;;1.60;;
3155;SDS011;1588;50.892;7.082;2023-02-28T04:02:21;5.97;;;2.73;;
3155;SDS011;1588;50.892;7.082;2023-02-28T04:07:25;4.03;;;1.90;;
3155;SDS011;1588;50.892;7.082;2023-02-28T04:12:31;3.90;;;2.23;;
3155;SDS011;1588;50.892;7.082;2023-02-28T04:17:33;3.50;;;2.00;;
3155;SDS011;1588;50.892;7.082;2023-02-28T04:22:37;8.17;;;2.93;;
3155;SDS011;1588;50.892;7.082;2023-02-28T04:27:39;6.10;;;1.67;;
3155;SDS011;1588;50.892;7.082;2023-02-28T04:32:41;3.90;;;2.27;;
3155;SDS011;1588;50.892;7.082;2023-02-28T04:37:45;7.57;;;2.93;;
3155;SDS011;1588;50.892;7.082;2023-02-28T04:42:47;8.10;;;2.00;;
3155;SDS011;1588;50.892;7.082;2023-02-28T04:47:49;4.07;;;2.50;;
3155;SDS011;1588;50.892;7.082;2023-02-28T04:52:53;4.57;;;2.90;;
3155;SDS011;1588;50.892;7.082;2023-02-28T04:57:55;5.40;;;2.40;;
3155;SDS011;1588;50.892;7.082;2023-02-28T05:02:58;2.47;;;1.80;;
3155;SDS011;1588;50.892;7.082;2023-02-28T05:08:01;3.90;;;2.47;;
3155;SDS011;1588;50.892;7.082;2023-02-28T05:13:05;5.43;;;2.43;;
3155;SDS011;1588;50.892;7.082;2023-02-28T05:18:08;2.50;;;1.80;;
3155;SDS011;1588;50.892;7.082;2023-02-28T05:23:12;3.00;;;2.30;;
3155;SDS011;1588;50.892;7.082;2023-02-28T05:28:15;3.97;;;2.20;;
3155;SDS011;1588;50.892;7.082;2023-02-28T05:33:18;6.60;;;2.00;;
3155;SDS011;1588;50.892;7.082;2023-02-28T05:38:21;8.17;;;2.80;;
3155;SDS011;1588;50.892;7.082;2023-02-28T05:43:23;3.30;;;2.00;;
3155;SDS011;1588;50.892;7.082;2023-02-28T05:48:26;5.50;;;2.40;;
3155;SDS011;1588;50.892;7.082;2023-02-28T05:53:29;4.97;;;2.27;;
3155;SDS011;1588;50.892;7.082;2023-02-28T05:58:32;4.53;;;2.20;;
3155;SDS011;1588;50.892;7.082;2023-02-28T06:03:35;4.57;;;2.80;;
3155;SDS011;1588;50.892;7.082;2023-02-28T06:08:38;3.63;;;1.77;;
3155;SDS011;1588;50.892;7.082;2023-02-28T06:13:42;2.53;;;1.70;;
3155;SDS011;1588;50.892;7.082;2023-02-28T06:18:45;2.93;;;2.03;;
3155;SDS011;1588;50.892;7.082;2023-02-28T06:23:48;4.30;;;2.10;;
3155;SDS011;1588;50.892;7.082;2023-02-28T06:28:50;4.30;;;2.63;;
3155;SDS011;1588;50.892;7.082;2023-02-28T06:33:53;10.00;;;2.50;;
3155;SDS011;1588;50.892;7.082;2023-02-28T06:38:57;9.30;;;2.70;;
3155;SDS011;1588;50.892;7.082;2023-02-28T06:43:59;3.57;;;2.70;;
3155;SDS011;1588;50.892;7.082;2023-02-28T06:49:02;3.37;;;2.27;;
3155;SDS011;1588;50.892;7.082;2023-02-28T06:54:07;3.73;;;2.50;;
3155;SDS011;1588;50.892;7.082;2023-02-28T06:59:19;2.93;;;2.03;;
3155;SDS011;1588;50.892;7.082;2023-02-28T07:04:22;2.80;;;2.17;;
3155;SDS011;1588;50.892;7.082;2023-02-28T07:09:26;5.33;;;2.13;;
3155;SDS011;1588;50.892;7.082;2023-02-28T07:14:30;3.50;;;2.53;;
3155;SDS011;1588;50.892;7.082;2023-02-28T07:19:32;4.47;;;2.03;;
3155;SDS011;1588;50.892;7.082;2023-02-28T07:24:36;4.40;;;1.90;;
3155;SDS011;1588;50.892;7.082;2023-02-28T07:29:44;3.60;;;2.20;;
3155;SDS011;1588;50.892;7.082;2023-02-28T07:34:47;2.17;;;1.80;;
3155;SDS011;1588;50.892;7.082;2023-02-28T07:39:51;7.63;;;2.23;;
3155;SDS011;1588;50.892;7.082;2023-02-28T07:44:56;1.70;;;1.10;;
3155;SDS011;1588;50.892;7.082;2023-02-28T07:49:59;2.47;;;2.03;;
3155;SDS011;1588;50.892;7.082;2023-02-28T07:55:03;17.13;;;1.73;;
3155;SDS011;1588;50.892;7.082;2023-02-28T08:00:07;3.30;;;2.17;;
3155;SDS011;1588;50.892;7.082;2023-02-28T08:05:11;3.97;;;1.90;;
3155;SDS011;1588;50.892;7.082;2023-02-28T08:10:15;3.30;;;2.20;;
3155;SDS011;1588;50.892;7.082;2023-02-28T08:15:17;3.83;;;2.03;;
3155;SDS011;1588;50.892;7.082;2023-02-28T08:20:20;4.23;;;2.10;;
3155;SDS011;1588;50.892;7.082;2023-02-28T08:25:23;2.70;;;2.27;;
3155;SDS011;1588;50.892;7.082;2023-02-28T08:30:26;4.77;;;2.10;;
3155;SDS011;1588;50.892;7.082;2023-02-28T08:35:29;2.50;;;1.90;;
3155;SDS011;1588;50.892;7.082;2023-02-28T08:40:35;2.87;;;1.97;;
3155;SDS011;1588;50.892;7.082;2023-02-28T08:45:37;2.60;;;1.90;;
3155;SDS011;1588;50.892;7.082;2023-02-28T08:50:40;1.57;;;1.47;;
3155;SDS011;1588;50.892;7.082;2023-02-28T08:55:46;4.00;;;1.90;;
3155;SDS011;1588;50.892;7.082;2023-02-28T09:00:57;3.20;;;1.80;;
3155;SDS011;1588;50.892;7.082;2023-02-28T09:06:02;1.70;;;1.43;;
3155;SDS011;1588;50.892;7.082;2023-02-28T09:11:06;2.33;;;1.90;;
3155;SDS011;1588;50.892;7.082;2023-02-28T09:16:11;1.97;;;1.40;;
3155;SDS011;1588;50.892;7.082;2023-02-28T09:21:15;2.60;;;1.70;;
3155;SDS011;1588;50.892;7.082;2023-02-28T09:26:21;2.53;;;1.87;;
3155;SDS011;1588;50.892;7.082;2023-02-28T09:31:28;5.30;;;1.90;;
3155;SDS011;1588;50.892;7.082;2023-02-28T09:36:31;1.60;;;1.50;;
3155;SDS011;1588;50.892;7.082;2023-02-28T09:41:47;2.90;;;1.97;;
3155;SDS011;1588;50.892;7.082;2023-02-28T09:46:54;6.70;;;1.77;;
3155;SDS011;1588;50.892;7.082;2023-02-28T09:52:07;4.07;;;2.10;;
3155;SDS011;1588;50.892;7.082;2023-02-28T09:57:16;2.60;;;1.87;;
3155;SDS011;1588;50.892;7.082;2023-02-28T10:02:32;2.77;;;1.97;;
3155;SDS011;1588;50.892;7.082;2023-02-28T10:07:58;2.23;;;1.80;;
3155;SDS011;1588;50.892;7.082;2023-02-28T10:13:13;3.03;;;1.30;;
3155;SDS011;1588;50.892;7.082;2023-02-28T10:18:21;2.20;;;2.00;;
3155;SDS011;1588;50.892;7.082;2023-02-28T10:23:28;3.67;;;1.67;;
3155;SDS011;1588;50.892;7.082;2023-02-28T10:28:37;4.90;;;2.50;;
3155;SDS011;1588;50.892;7.082;2023-02-28T10:33:44;3.30;;;2.00;;
3155;SDS011;1588;50.892;7.082;2023-02-28T10:38:47;4.00;;;1.67;;
3155;SDS011;1588;50.892;7.082;2023-02-28T10:43:52;3.43;;;2.03;;
3155;SDS011;1588;50.892;7.082;2023-02-28T10:49:00;2.87;;;2.07;;
3155;SDS011;1588;50.892;7.082;2023-02-28T10:54:15;4.77;;;2.60;;
3155;SDS011;1588;50.892;7.082;2023-02-28T10:59:30;3.10;;;2.07;;
3155;SDS011;1588;50.892;7.082;2023-02-28T11:04:35;3.90;;;2.00;;
3155;SDS011;1588;50.892;7.082;2023-02-28T11:09:40;4.07;;;2.50;;
3155;SDS011;1588;50.892;7.082;2023-02-28T11:14:48;2.40;;;1.80;;
3155;SDS011;1588;50.892;7.082;2023-02-28T11:19:53;4.13;;;1.90;;
3155;SDS011;1588;50.892;7.082;2023-02-28T11:24:57;2.27;;;1.93;;
3155;SDS011;1588;50.892;7.082;2023-02-28T11:30:12;4.03;;;1.87;;
3155;SDS011;1588;50.892;7.082;2023-02-28T11:35:34;3.30;;;2.40;;
3155;SDS011;1588;50.892;7.082;2023-02-28T11:40:42;2.40;;;1.80;;
3155;SDS011;1588;50.892;7.082;2023-02-28T11:45:54;5.00;;;1.93;;
3155;SDS011;1588;50.892;7.082;2023-02-28T11:51:11;2.10;;;1.77;;
3155;SDS011;1588;50.892;7.082;2023-02-28T11:56:24;3.30;;;2.20;;
3155;SDS011;1588;50.892;7.082;2023-02-28T12:01:35;3.93;;;2.10;;
3155;SDS011;1588;50.892;7.082;2023-02-28T12:06:44;3.57;;;2.20;;
3155;SDS011;1588;50.892;7.082;2023-02-28T12:11:53;3.20;;;1.77;;
3155;SDS011;1588;50.892;7.082;2023-02-28T12:17:13;3.63;;;2.63;;
3155;SDS011;1588;50.892;7.082;2023-02-28T12:22:29;2.80;;;2.20;;
3155;SDS011;1588;50.892;7.082;2023-02-28T12:27:38;5.20;;;2.17;;
3155;SDS011;1588;50.892;7.082;2023-02-28T12:32:51;5.40;;;2.57;;
3155;SDS011;1588;50.892;7.082;2023-02-28T12:37:59;6.07;;;2.83;;
3155;SDS011;1588;50.892;7.082;2023-02-28T12:43:07;3.83;;;2.60;;
3155;SDS011;1588;50.892;7.082;2023-02-28T12:48:13;15.93;;;2.90;;
3155;SDS011;1588;50.892;7.082;2023-02-28T12:53:22;4.00;;;2.43;;
3155;SDS011;1588;50.892;7.082;2023-02-28T12:58:30;4.47;;;2.67;;
3155;SDS011;1588;50.892;7.082;2023-02-28T13:03:54;6.30;;;3.40;;
3155;SDS011;1588;50.892;7.082;2023-02-28T13:09:09;3.80;;;2.70;;
3155;SDS011;1588;50.892;7.082;2023-02-28T13:14:26;4.30;;;2.70;;
3155;SDS011;1588;50.892;7.082;2023-02-28T13:19:33;4.67;;;2.70;;
3155;SDS011;1588;50.892;7.082;2023-02-28T13:29:50;3.60;;;2.43;;
3155;SDS011;1588;50.892;7.082;2023-02-28T13:40:38;4.50;;;2.33;;
3155;SDS011;1588;50.892;7.082;2023-02-28T13:56:47;3.80;;;2.63;;
3155;SDS011;1588;50.892;7.082;2023-02-28T14:01:58;4.27;;;2.70;;
3155;SDS011;1588;50.892;7.082;2023-02-28T14:07:23;3.60;;;2.87;;
3155;SDS011;1588;50.892;7.082;2023-02-28T14:17:56;5.10;;;3.23;;
3155;SDS011;1588;50.892;7.082;2023-02-28T14:23:03;5.27;;;3.00;;
3155;SDS011;1588;50.892;7.082;2023-02-28T14:28:17;8.03;;;2.70;;
3155;SDS011;1588;50.892;7.082;2023-02-28T14:33:34;4.10;;;2.80;;
3155;SDS011;1588;50.892;7.082;2023-02-28T14:38:55;9.27;;;3.40;;
3155;SDS011;1588;50.892;7.082;2023-02-28T14:44:01;5.10;;;3.07;;
3155;SDS011;1588;50.892;7.082;2023-02-28T14:49:20;5.10;;;3.13;;
3155;SDS011;1588;50.892;7.082;2023-02-28T14:54:25;3.70;;;2.70;;
3155;SDS011;1588;50.892;7.082;2023-02-28T14:59:35;4.70;;;3.10;;
3155;SDS011;1588;50.892;7.082;2023-02-28T15:04:37;5.90;;;3.53;;
3155;SDS011;1588;50.892;7.082;2023-02-28T15:09:42;4.30;;;2.57;;
3155;SDS011;1588;50.892;7.082;2023-02-28T15:14:46;4.60;;;3.23;;
3155;SDS011;1588;50.892;7.082;2023-02-28T15:19:48;4.53;;;2.60;;
3155;SDS011;1588;50.892;7.082;2023-02-28T15:24:53;4.63;;;3.50;;
3155;SDS011;1588;50.892;7.082;2023-02-28T15:29:58;4.10;;;2.40;;
3155;SDS011;1588;50.892;7.082;2023-02-28T15:35:17;5.20;;;3.10;;
3155;SDS011;1588;50.892;7.082;2023-02-28T15:40:23;4.10;;;2.37;;
3155;SDS011;1588;50.892;7.082;2023-02-28T15:45:38;5.60;;;2.80;;
3155;SDS011;1588;50.892;7.082;2023-02-28T15:50:47;7.43;;;3.10;;
3155;SDS011;1588;50.892;7.082;2023-02-28T15:55:53;9.43;;;3.20;;
3155;SDS011;1588;50.892;7.082;2023-02-28T16:01:04;4.83;;;2.70;;
3155;SDS011;1588;50.892;7.082;2023-02-28T16:11:37;4.97;;;3.00;;
3155;SDS011;1588;50.892;7.082;2023-02-28T16:16:44;3.07;;;2.30;;
3155;SDS011;1588;50.892;7.082;2023-02-28T16:21:48;4.07;;;2.67;;
3155;SDS011;1588;50.892;7.082;2023-02-28T16:26:59;4.97;;;2.67;;
3155;SDS011;1588;50.892;7.082;2023-02-28T16:32:05;4.40;;;2.67;;
3155;SDS011;1588;50.892;7.082;2023-02-28T16:37:11;5.40;;;3.07;;
3155;SDS011;1588;50.892;7.082;2023-02-28T16:42:20;9.20;;;2.60;;
3155;SDS011;1588;50.892;7.082;2023-02-28T16:47:28;3.83;;;2.30;;
3155;SDS011;1588;50.892;7.082;2023-02-28T16:52:33;5.43;;;2.73;;
3155;SDS011;1588;50.892;7.082;2023-02-28T16:57:45;5.60;;;3.53;;
3155;SDS011;1588;50.892;7.082;2023-02-28T17:02:52;4.27;;;2.53;;
3155;SDS011;1588;50.892;7.082;2023-02-28T17:07:55;2.60;;;2.20;;
3155;SDS011;1588;50.892;7.082;2023-02-28T17:12:57;5.80;;;2.43;;
3155;SDS011;1588;50.892;7.082;2023-02-28T17:18:01;9.30;;;2.83;;
3155;SDS011;1588;50.892;7.082;2023-02-28T17:23:04;6.33;;;3.10;;
3155;SDS011;1588;50.892;7.082;2023-02-28T17:28:06;7.37;;;3.13;;
3155;SDS011;1588;50.892;7.082;2023-02-28T17:33:11;5.53;;;2.57;;
3155;SDS011;1588;50.892;7.082;2023-02-28T17:38:15;5.13;;;2.27;;
3155;SDS011;1588;50.892;7.082;2023-02-28T17:43:18;3.27;;;2.13;;
3155;SDS011;1588;50.892;7.082;2023-02-28T17:48:22;7.13;;;2.57;;
3155;SDS011;1588;50.892;7.082;2023-02-28T17:53:27;4.03;;;2.50;;
3155;SDS011;1588;50.892;7.082;2023-02-28T17:58:29;3.53;;;2.43;;
3155;SDS011;1588;50.892;7.082;2023-02-28T18:03:34;5.13;;;2.60;;
3155;SDS011;1588;50.892;7.082;2023-02-28T18:08:36;4.83;;;2.50;;
3155;SDS011;1588;50.892;7.082;2023-02-28T18:13:38;2.60;;;2.30;;
3155;SDS011;1588;50.892;7.082;2023-02-28T18:18:42;4.03;;;2.93;;
3155;SDS011;1588;50.892;7.082;2023-02-28T18:23:45;5.30;;;2.23;;
3155;SDS011;1588;50.892;7.082;2023-02-28T18:28:51;6.27;;;2.67;;
3155;SDS011;1588;50.892;7.082;2023-02-28T18:33:55;7.17;;;3.00;;
3155;SDS011;1588;50.892;7.082;2023-02-28T18:38:57;6.50;;;4.27;;
3155;SDS011;1588;50.892;7.082;2023-02-28T18:44:00;5.80;;;3.00;;
3155;SDS011;1588;50.892;7.082;2023-02-28T18:49:04;7.27;;;3.10;;
3155;SDS011;1588;50.892;7.082;2023-02-28T18:54:06;6.47;;;2.90;;
3155;SDS011;1588;50.892;7.082;2023-02-28T18:59:08;7.67;;;2.80;;
3155;SDS011;1588;50.892;7.082;2023-02-28T19:04:13;6.20;;;4.10;;
3155;SDS011;1588;50.892;7.082;2023-02-28T19:09:15;10.17;;;2.60;;
3155;SDS011;1588;50.892;7.082;2023-02-28T19:14:17;4.03;;;2.87;;
3155;SDS011;1588;50.892;7.082;2023-02-28T19:19:22;10.00;;;3.03;;
3155;SDS011;1588;50.892;7.082;2023-02-28T19:24:24;6.13;;;3.10;;
3155;SDS011;1588;50.892;7.082;2023-02-28T19:29:27;4.40;;;2.27;;
3155;SDS011;1588;50.892;7.082;2023-02-28T19:34:30;9.07;;;3.30;;
3155;SDS011;1588;50.892;7.082;2023-02-28T19:39:32;8.33;;;2.97;;
3155;SDS011;1588;50.892;7.082;2023-02-28T19:44:40;2.90;;;2.40;;
3155;SDS011;1588;50.892;7.082;2023-02-28T19:49:44;6.97;;;2.23;;
3155;SDS011;1588;50.892;7.082;2023-02-28T19:54:46;6.53;;;3.50;;
3155;SDS011;1588;50.892;7.082;2023-02-28T19:59:49;4.40;;;2.83;;
3155;SDS011;1588;50.892;7.082;2023-02-28T20:04:52;5.33;;;2.67;;
3155;SDS011;1588;50.892;7.082;2023-02-28T20:09:56;6.50;;;3.63;;
3155;SDS011;1588;50.892;7.082;2023-02-28T20:14:58;4.63;;;3.13;;
3155;SDS011;1588;50.892;7.082;2023-02-28T20:20:02;8.73;;;3.60;;
3155;SDS011;1588;50.892;7.082;2023-02-28T20:25:06;5.00;;;2.80;;
3155;SDS011;1588;50.892;7.082;2023-02-28T20:30:11;6.03;;;3.47;;
3155;SDS011;1588;50.892;7.082;2023-02-28T20:35:15;11.73;;;5.37;;
3155;SDS011;1588;50.892;7.082;2023-02-28T20:40:17;7.27;;;3.40;;
3155;SDS011;1588;50.892;7.082;2023-02-28T20:45:19;9.77;;;4.20;;
3155;SDS011;1588;50.892;7.082;2023-02-28T20:50:24;7.50;;;3.63;;
3155;SDS011;1588;50.892;7.082;2023-02-28T20:55:28;7.17;;;3.43;;
3155;SDS011;1588;50.892;7.082;2023-02-28T21:00:30;8.37;;;3.77;;
3155;SDS011;1588;50.892;7.082;2023-02-28T21:05:38;11.40;;;4.30;;
3155;SDS011;1588;50.892;7.082;2023-02-28T21:10:40;11.77;;;3.90;;
3155;SDS011;1588;50.892;7.082;2023-02-28T21:15:42;14.00;;;4.53;;
3155;SDS011;1588;50.892;7.082;2023-02-28T21:20:45;18.43;;;5.37;;
3155;SDS011;1588;50.892;7.082;2023-02-28T21:25:48;16.33;;;6.20;;
3155;SDS011;1588;50.892;7.082;2023-02-28T21:30:50;11.73;;;4.17;;
3155;SDS011;1588;50.892;7.082;2023-02-28T21:35:59;10.40;;;3.67;;
3155;SDS011;1588;50.892;7.082;2023-02-28T21:41:10;7.07;;;3.63;;
3155;SDS011;1588;50.892;7.082;2023-02-28T21:46:14;5.47;;;3.40;;
3155;SDS011;1588;50.892;7.082;2023-02-28T21:51:20;7.57;;;3.50;;
3155;SDS011;1588;50.892;7.082;2023-02-28T21:56:25;4.93;;;2.90;;
3155;SDS011;1588;50.892;7.082;2023-02-28T22:01:29;3.63;;;2.60;;
3155;SDS011;1588;50.892;7.082;2023-02-28T22:06:36;6.40;;;2.73;;
3155;SDS011;1588;50.892;7.082;2023-02-28T22:11:39;6.03;;;2.83;;
3155;SDS011;1588;50.892;7.082;2023-02-28T22:16:41;8.30;;;2.67;;
3155;SDS011;1588;50.892;7.082;2023-02-28T22:21:47;6.87;;;3.37;;
3155;SDS011;1588;50.892;7.082;2023-02-28T22:26:49;5.80;;;3.10;;
3155;SDS011;1588;50.892;7.082;2023-02-28T22:31:55;6.20;;;4.00;;
3155;SDS011;1588;50.892;7.082;2023-02-28T22:37:06;7.70;;;4.00;;
3155;SDS011;1588;50.892;7.082;2023-02-28T22:42:11;5.67;;;2.77;;
3155;SDS011;1588;50.892;7.082;2023-02-28T22:47:28;10.67;;;4.00;;
3155;SDS011;1588;50.892;7.082;2023-02-28T22:52:32;7.17;;;3.73;;
3155;SDS011;1588;50.892;7.082;2023-02-28T22:57:35;7.73;;;3.70;;
3155;SDS011;1588;50.892;7.082;2023-02-28T23:02:40;13.63;;;3.97;;
3155;SDS011;1588;50.892;7.082;2023-02-28T23:07:51;9.63;;;4.70;;
3155;SDS011;1588;50.892;7.082;2023-02-28T23:13:00;8.00;;;4.27;;
3155;SDS011;1588;50.892;7.082;2023-02-28T23:18:03;10.23;;;4.23;;
3155;SDS011;1588;50.892;7.082;2023-02-28T23:23:17;9.30;;;3.63;;
3155;SDS011;1588;50.892;7.082;2023-02-28T23:28:22;8.03;;;3.90;;
3155;SDS011;1588;50.892;7.082;2023-02-28T23:33:29;9.53;;;4.33;;
3155;SDS011;1588;50.892;7.082;2023-02-28T23:38:38;7.23;;;3.30;;
3155;SDS011;1588;50.892;7.082;2023-02-28T23:43:42;10.47;;;4.50;;
3155;SDS011;1588;50.892;7.082;2023-02-28T23:48:44;15.73;;;4.63;;
3155;SDS011;1588;50.892;7.082;2023-02-28T23:53:49;8.30;;;3.53;;
3155;SDS011;1588;50.892;7.082;2023-02-28T23:58:53;10.27;;;3.90;;
